Skip Navigation LinksHome page > Weather > Current weather Skip Navigation Links

Current Weather

Bom Jesus Da Lapa, Brazil

For information only: do not use for flight planning or navigation.
Latest weather
Observation time Friday, June 23, 2017 4:00 PM BRT
Local time Friday, June 23, 2017 5:35 PM BRT
Flight conditions Visual Meteorological Conditions
Winds
Wind direction South-Southeast (150°)
Wind speed 15 mph
Visibility 6.2 mi.
Sky condition
Ceiling unlimited
Cloud layer few clouds 2,000 ft.
Cloud layer scattered clouds 3,000 ft.
Temperature 88°F
Dewpoint 59°F
Altimeter 30.00 in.Hg
Derived measurements
Relative humidity 38%
Heat index 88°F
Density altitude 3418 ft.
METAR SBLP 231900Z 15013KT 9999 FEW020 SCT030 31/15 Q1016

Settings

Location code

InnerDrive.Weather 4.0.6144.1 Release CLR 4.0.30319.36366
Copyright ©2015 Inner Drive Technology. All rights reserved. Portions Copyright ©1986-2015 David Braverman.

Find weather

Site navigation


Skip Navigation Links

Place info

Page info

PayPal - The safer, easier way to pay online!

Return home.

Copyright ©2017 Inner Drive Technology. Purveyors of fine, hand-crafted computer software. Page printed 2017-06-23T20:35:53 UTC.